Hamilton, Illinois
Current Conditions -  °F | °C
As of 9:15 PM on Thursday 27 Nov 2014 (Local Time) from KEOK Reporting Station
Overcast Overcast  
Wind Chill: 16°   Ceiling: 6000
Heat Index: 16°   Visibility: 10mi
Dew Point:   Wind: 0mph
Humidity: 73%   Direction: NA
Pressure: 30.42"   Gusts: NA
Location:  40.4°N, 91.34°W
Report Text: KEOK 280315Z AUTO 00000KT 10SM FEW037 SCT045 OVC060 M09/M13 A3042 RMK AO2
Loading
Personal Weather Stations






























Interactive Weather Map New forecast layout! Learn more

10-Day Weather Forecast

Advertisements
Track Severe Weather on mobile